sensor_id;sensor_type;location;lat;lon;timestamp;pressure;altitude;pressure_sealevel;temperature
65316;BMP280;51920;53.952;10.292;2023-05-28T00:01:15;101839.38;;;10.41
65316;BMP280;51920;53.952;10.292;2023-05-28T00:03:44;101840.25;;;10.45
65316;BMP280;51920;53.952;10.292;2023-05-28T00:06:11;101842.88;;;10.41
65316;BMP280;51920;53.952;10.292;2023-05-28T00:08:38;101842.09;;;10.41
65316;BMP280;51920;53.952;10.292;2023-05-28T00:11:05;101839.31;;;10.37
65316;BMP280;51920;53.952;10.292;2023-05-28T00:13:33;101836.06;;;10.31
65316;BMP280;51920;53.952;10.292;2023-05-28T00:15:59;101835.16;;;10.27
65316;BMP280;51920;53.952;10.292;2023-05-28T00:18:27;101835.06;;;10.24
65316;BMP280;51920;53.952;10.292;2023-05-28T00:20:54;101831.91;;;10.22
65316;BMP280;51920;53.952;10.292;2023-05-28T00:23:22;101821.81;;;10.19
65316;BMP280;51920;53.952;10.292;2023-05-28T00:25:49;101830.63;;;10.15
65316;BMP280;51920;53.952;10.292;2023-05-28T00:28:15;101827.31;;;10.22
65316;BMP280;51920;53.952;10.292;2023-05-28T00:30:42;101810.19;;;10.18
65316;BMP280;51920;53.952;10.292;2023-05-28T00:33:09;101822.16;;;10.17
65316;BMP280;51920;53.952;10.292;2023-05-28T00:35:35;101817.50;;;10.02
65316;BMP280;51920;53.952;10.292;2023-05-28T00:38:02;101800.31;;;9.94
65316;BMP280;51920;53.952;10.292;2023-05-28T00:40:29;101813.84;;;9.94
65316;BMP280;51920;53.952;10.292;2023-05-28T00:42:55;101813.38;;;9.92
65316;BMP280;51920;53.952;10.292;2023-05-28T00:45:22;101814.75;;;9.86
65316;BMP280;51920;53.952;10.292;2023-05-28T00:47:49;101815.44;;;9.83
65316;BMP280;51920;53.952;10.292;2023-05-28T00:50:16;101815.09;;;9.84
65316;BMP280;51920;53.952;10.292;2023-05-28T00:52:46;101808.03;;;9.80
65316;BMP280;51920;53.952;10.292;2023-05-28T00:55:14;101810.97;;;9.75
65316;BMP280;51920;53.952;10.292;2023-05-28T00:57:42;101809.84;;;9.76
65316;BMP280;51920;53.952;10.292;2023-05-28T01:00:10;101810.66;;;9.76
65316;BMP280;51920;53.952;10.292;2023-05-28T01:02:37;101815.03;;;9.68
65316;BMP280;51920;53.952;10.292;2023-05-28T01:05:04;101808.50;;;9.69
65316;BMP280;51920;53.952;10.292;2023-05-28T01:07:31;101809.75;;;9.60
65316;BMP280;51920;53.952;10.292;2023-05-28T01:09:58;101810.81;;;9.55
65316;BMP280;51920;53.952;10.292;2023-05-28T01:12:26;101802.50;;;9.48
65316;BMP280;51920;53.952;10.292;2023-05-28T01:14:53;101804.28;;;9.56
65316;BMP280;51920;53.952;10.292;2023-05-28T01:17:21;101804.72;;;9.58
65316;BMP280;51920;53.952;10.292;2023-05-28T01:19:47;101797.63;;;9.53
65316;BMP280;51920;53.952;10.292;2023-05-28T01:22:17;101799.06;;;9.51
65316;BMP280;51920;53.952;10.292;2023-05-28T01:24:44;101806.78;;;9.49
65316;BMP280;51920;53.952;10.292;2023-05-28T01:27:12;101812.78;;;9.42
65316;BMP280;51920;53.952;10.292;2023-05-28T01:29:39;101806.22;;;9.43
65316;BMP280;51920;53.952;10.292;2023-05-28T01:32:05;101791.84;;;9.39
65316;BMP280;51920;53.952;10.292;2023-05-28T01:34:32;101796.88;;;9.41
65316;BMP280;51920;53.952;10.292;2023-05-28T01:37:07;101804.91;;;9.37
65316;BMP280;51920;53.952;10.292;2023-05-28T01:39:44;101794.75;;;9.34
65316;BMP280;51920;53.952;10.292;2023-05-28T01:42:13;101790.78;;;9.31
65316;BMP280;51920;53.952;10.292;2023-05-28T01:44:41;101791.06;;;9.26
65316;BMP280;51920;53.952;10.292;2023-05-28T01:47:10;101792.44;;;9.20
65316;BMP280;51920;53.952;10.292;2023-05-28T01:49:37;101795.13;;;9.20
65316;BMP280;51920;53.952;10.292;2023-05-28T01:52:07;101789.28;;;9.18
65316;BMP280;51920;53.952;10.292;2023-05-28T01:54:34;101784.06;;;9.25
65316;BMP280;51920;53.952;10.292;2023-05-28T01:57:01;101790.25;;;9.26
65316;BMP280;51920;53.952;10.292;2023-05-28T01:59:29;101788.94;;;9.20
65316;BMP280;51920;53.952;10.292;2023-05-28T02:01:56;101790.50;;;9.21
65316;BMP280;51920;53.952;10.292;2023-05-28T02:04:23;101791.09;;;9.14
65316;BMP280;51920;53.952;10.292;2023-05-28T02:06:50;101795.34;;;9.03
65316;BMP280;51920;53.952;10.292;2023-05-28T02:09:18;101792.22;;;9.01
65316;BMP280;51920;53.952;10.292;2023-05-28T02:11:45;101792.22;;;9.01
65316;BMP280;51920;53.952;10.292;2023-05-28T02:14:12;101796.28;;;9.07
65316;BMP280;51920;53.952;10.292;2023-05-28T02:16:48;101798.06;;;9.03
65316;BMP280;51920;53.952;10.292;2023-05-28T02:19:16;101795.34;;;9.03
65316;BMP280;51920;53.952;10.292;2023-05-28T02:21:42;101795.34;;;9.03
65316;BMP280;51920;53.952;10.292;2023-05-28T02:24:09;101797.63;;;9.01
65316;BMP280;51920;53.952;10.292;2023-05-28T02:26:36;101794.81;;;8.97
65316;BMP280;51920;53.952;10.292;2023-05-28T02:29:03;101781.09;;;8.90
65316;BMP280;51920;53.952;10.292;2023-05-28T02:31:29;101795.59;;;8.85
65316;BMP280;51920;53.952;10.292;2023-05-28T02:33:56;101789.41;;;8.85
65316;BMP280;51920;53.952;10.292;2023-05-28T02:36:23;101791.31;;;8.84
65316;BMP280;51920;53.952;10.292;2023-05-28T02:38:51;101800.13;;;8.81
65316;BMP280;51920;53.952;10.292;2023-05-28T02:41:17;101793.94;;;8.81
65316;BMP280;51920;53.952;10.292;2023-05-28T02:43:47;101786.38;;;8.74
65316;BMP280;51920;53.952;10.292;2023-05-28T02:46:14;101779.84;;;8.75
65316;BMP280;51920;53.952;10.292;2023-05-28T02:48:41;101788.19;;;8.82
65316;BMP280;51920;53.952;10.292;2023-05-28T02:51:09;101785.94;;;8.84
65316;BMP280;51920;53.952;10.292;2023-05-28T02:53:56;101784.44;;;8.87
65316;BMP280;51920;53.952;10.292;2023-05-28T02:56:23;101778.59;;;8.85
65316;BMP280;51920;53.952;10.292;2023-05-28T02:58:51;101770.81;;;8.83
65316;BMP280;51920;53.952;10.292;2023-05-28T03:01:19;101779.38;;;8.85
65316;BMP280;51920;53.952;10.292;2023-05-28T03:03:46;101779.16;;;8.78
65316;BMP280;51920;53.952;10.292;2023-05-28T03:06:12;101781.66;;;8.71
65316;BMP280;51920;53.952;10.292;2023-05-28T03:08:49;101781.19;;;8.69
65316;BMP280;51920;53.952;10.292;2023-05-28T03:11:16;101791.44;;;8.76
65316;BMP280;51920;53.952;10.292;2023-05-28T03:13:43;101788.41;;;8.77
65316;BMP280;51920;53.952;10.292;2023-05-28T03:16:10;101784.25;;;8.80
65316;BMP280;51920;53.952;10.292;2023-05-28T03:18:37;101783.91;;;8.81
65316;BMP280;51920;53.952;10.292;2023-05-28T03:21:05;101784.25;;;8.80
65316;BMP280;51920;53.952;10.292;2023-05-28T03:23:32;101777.72;;;8.81
65316;BMP280;51920;53.952;10.292;2023-05-28T03:26:19;101770.41;;;8.69
65316;BMP280;51920;53.952;10.292;2023-05-28T03:28:48;101764.88;;;8.65
65316;BMP280;51920;53.952;10.292;2023-05-28T03:31:46;101780.31;;;8.77
65316;BMP280;51920;53.952;10.292;2023-05-28T03:34:17;101783.13;;;8.81
65316;BMP280;51920;53.952;10.292;2023-05-28T03:36:44;101771.41;;;8.77
65316;BMP280;51920;53.952;10.292;2023-05-28T03:39:11;101784.13;;;8.88
65316;BMP280;51920;53.952;10.292;2023-05-28T03:41:38;101785.81;;;8.93
65316;BMP280;51920;53.952;10.292;2023-05-28T03:44:07;101785.72;;;8.89
65316;BMP280;51920;53.952;10.292;2023-05-28T03:46:34;101777.50;;;8.98
65316;BMP280;51920;53.952;10.292;2023-05-28T03:49:01;101779.84;;;9.00
65316;BMP280;51920;53.952;10.292;2023-05-28T03:51:28;101773.06;;;9.06
65316;BMP280;51920;53.952;10.292;2023-05-28T03:53:55;101778.69;;;9.13
65316;BMP280;51920;53.952;10.292;2023-05-28T03:56:22;101772.59;;;9.16
65316;BMP280;51920;53.952;10.292;2023-05-28T03:58:51;101772.16;;;9.26
65316;BMP280;51920;53.952;10.292;2023-05-28T04:01:18;101768.28;;;9.40
65316;BMP280;51920;53.952;10.292;2023-05-28T04:03:45;101766.44;;;9.44
65316;BMP280;51920;53.952;10.292;2023-05-28T04:06:11;101772.25;;;9.58
65316;BMP280;51920;53.952;10.292;2023-05-28T04:08:39;101772.56;;;9.69
65316;BMP280;51920;53.952;10.292;2023-05-28T04:11:06;101767.06;;;9.81
65316;BMP280;51920;53.952;10.292;2023-05-28T04:13:33;101771.19;;;9.91
65316;BMP280;51920;53.952;10.292;2023-05-28T04:16:02;101764.03;;;9.99
65316;BMP280;51920;53.952;10.292;2023-05-28T04:18:29;101777.75;;;10.22
65316;BMP280;51920;53.952;10.292;2023-05-28T04:20:56;101771.94;;;10.35
65316;BMP280;51920;53.952;10.292;2023-05-28T04:23:23;101769.72;;;10.57
65316;BMP280;51920;53.952;10.292;2023-05-28T04:25:50;101767.56;;;10.82
65316;BMP280;51920;53.952;10.292;2023-05-28T04:28:17;101771.19;;;11.06
65316;BMP280;51920;53.952;10.292;2023-05-28T04:30:43;101774.38;;;11.27
65316;BMP280;51920;53.952;10.292;2023-05-28T04:33:10;101769.59;;;11.44
65316;BMP280;51920;53.952;10.292;2023-05-28T04:35:37;101769.47;;;11.56
65316;BMP280;51920;53.952;10.292;2023-05-28T04:38:04;101776.28;;;11.66
65316;BMP280;51920;53.952;10.292;2023-05-28T04:40:31;101782.75;;;11.80
65316;BMP280;51920;53.952;10.292;2023-05-28T04:42:58;101773.84;;;11.83
65316;BMP280;51920;53.952;10.292;2023-05-28T04:45:27;101781.28;;;11.87
65316;BMP280;51920;53.952;10.292;2023-05-28T04:47:53;101787.63;;;11.94
65316;BMP280;51920;53.952;10.292;2023-05-28T04:50:20;101792.25;;;12.17
65316;BMP280;51920;53.952;10.292;2023-05-28T04:52:49;101788.25;;;12.34
65316;BMP280;51920;53.952;10.292;2023-05-28T04:55:17;101790.81;;;12.46
65316;BMP280;51920;53.952;10.292;2023-05-28T04:57:44;101777.03;;;12.35
65316;BMP280;51920;53.952;10.292;2023-05-28T05:00:11;101783.13;;;12.52
65316;BMP280;51920;53.952;10.292;2023-05-28T05:02:41;101797.06;;;12.50
65316;BMP280;51920;53.952;10.292;2023-05-28T05:05:08;101797.63;;;12.36
65316;BMP280;51920;53.952;10.292;2023-05-28T05:07:36;101808.59;;;12.43
65316;BMP280;51920;53.952;10.292;2023-05-28T05:10:08;101797.44;;;12.25
65316;BMP280;51920;53.952;10.292;2023-05-28T05:12:35;101787.56;;;12.37
65316;BMP280;51920;53.952;10.292;2023-05-28T05:15:03;101793.88;;;12.44
65316;BMP280;51920;53.952;10.292;2023-05-28T05:17:32;101805.56;;;12.49
65316;BMP280;51920;53.952;10.292;2023-05-28T05:20:01;101806.47;;;12.56
65316;BMP280;51920;53.952;10.292;2023-05-28T05:22:30;101805.63;;;12.52
65316;BMP280;51920;53.952;10.292;2023-05-28T05:24:57;101806.06;;;12.54
65316;BMP280;51920;53.952;10.292;2023-05-28T05:27:24;101796.50;;;12.64
65316;BMP280;51920;53.952;10.292;2023-05-28T05:29:52;101817.78;;;12.88
65316;BMP280;51920;53.952;10.292;2023-05-28T05:32:19;101799.38;;;13.05
65316;BMP280;51920;53.952;10.292;2023-05-28T05:34:46;101803.53;;;13.29
65316;BMP280;51920;53.952;10.292;2023-05-28T05:37:25;101808.16;;;13.25
65316;BMP280;51920;53.952;10.292;2023-05-28T05:40:27;101802.53;;;13.44
65316;BMP280;51920;53.952;10.292;2023-05-28T05:43:10;101811.06;;;13.39
65316;BMP280;51920;53.952;10.292;2023-05-28T05:45:37;101798.25;;;13.40
65316;BMP280;51920;53.952;10.292;2023-05-28T05:48:04;101796.03;;;13.52
65316;BMP280;51920;53.952;10.292;2023-05-28T05:50:32;101795.28;;;13.56
65316;BMP280;51920;53.952;10.292;2023-05-28T05:52:58;101795.69;;;13.58
65316;BMP280;51920;53.952;10.292;2023-05-28T05:55:28;101807.00;;;13.60
65316;BMP280;51920;53.952;10.292;2023-05-28T05:57:54;101807.72;;;13.57
65316;BMP280;51920;53.952;10.292;2023-05-28T06:00:25;101807.84;;;13.67
65316;BMP280;51920;53.952;10.292;2023-05-28T06:02:54;101809.09;;;13.73
65316;BMP280;51920;53.952;10.292;2023-05-28T06:05:44;101802.44;;;13.74
65316;BMP280;51920;53.952;10.292;2023-05-28T06:08:23;101811.25;;;13.98
65316;BMP280;51920;53.952;10.292;2023-05-28T06:11:01;101812.91;;;14.10
65316;BMP280;51920;53.952;10.292;2023-05-28T06:13:30;101805.72;;;14.35
65316;BMP280;51920;53.952;10.292;2023-05-28T06:15:57;101807.72;;;14.42
65316;BMP280;51920;53.952;10.292;2023-05-28T06:18:26;101804.28;;;14.63
65316;BMP280;51920;53.952;10.292;2023-05-28T06:20:54;101808.31;;;14.83
65316;BMP280;51920;53.952;10.292;2023-05-28T06:23:22;101790.81;;;14.92
65316;BMP280;51920;53.952;10.292;2023-05-28T06:25:48;101800.66;;;15.21
65316;BMP280;51920;53.952;10.292;2023-05-28T06:28:15;101787.34;;;15.02
65316;BMP280;51920;53.952;10.292;2023-05-28T06:33:11;101819.66;;;14.93
65316;BMP280;51920;53.952;10.292;2023-05-28T06:35:39;101814.56;;;14.88
65316;BMP280;51920;53.952;10.292;2023-05-28T06:38:06;101816.84;;;14.75
65316;BMP280;51920;53.952;10.292;2023-05-28T06:40:32;101816.47;;;14.80
65316;BMP280;51920;53.952;10.292;2023-05-28T06:42:59;101821.66;;;15.03
65316;BMP280;51920;53.952;10.292;2023-05-28T06:45:51;101821.31;;;15.15
65316;BMP280;51920;53.952;10.292;2023-05-28T06:48:18;101817.78;;;15.08
65316;BMP280;51920;53.952;10.292;2023-05-28T06:50:44;101822.75;;;14.84
65316;BMP280;51920;53.952;10.292;2023-05-28T06:53:11;101816.09;;;14.81
65316;BMP280;51920;53.952;10.292;2023-05-28T06:55:38;101819.59;;;14.78
65316;BMP280;51920;53.952;10.292;2023-05-28T06:58:28;101821.66;;;15.03
65316;BMP280;51920;53.952;10.292;2023-05-28T07:01:06;101828.47;;;15.59
65316;BMP280;51920;53.952;10.292;2023-05-28T07:03:47;101837.81;;;15.83
65316;BMP280;51920;53.952;10.292;2023-05-28T07:06:22;101836.28;;;16.14
65316;BMP280;51920;53.952;10.292;2023-05-28T07:08:49;101829.19;;;16.56
65316;BMP280;51920;53.952;10.292;2023-05-28T07:11:16;101836.97;;;16.72
65316;BMP280;51920;53.952;10.292;2023-05-28T07:13:45;101836.84;;;17.05
65316;BMP280;51920;53.952;10.292;2023-05-28T07:16:13;101842.00;;;17.55
65316;BMP280;51920;53.952;10.292;2023-05-28T07:18:40;101845.72;;;17.86
65316;BMP280;51920;53.952;10.292;2023-05-28T07:21:07;101844.25;;;17.71
65316;BMP280;51920;53.952;10.292;2023-05-28T07:23:39;101837.41;;;18.31
65316;BMP280;51920;53.952;10.292;2023-05-28T07:26:06;101842.25;;;18.54
65316;BMP280;51920;53.952;10.292;2023-05-28T07:28:33;101844.72;;;18.45
65316;BMP280;51920;53.952;10.292;2023-05-28T07:31:00;101840.53;;;18.36
65316;BMP280;51920;53.952;10.292;2023-05-28T07:33:29;101844.69;;;18.48
65316;BMP280;51920;53.952;10.292;2023-05-28T07:35:56;101851.28;;;18.58
65316;BMP280;51920;53.952;10.292;2023-05-28T07:38:23;101851.63;;;18.91
65316;BMP280;51920;53.952;10.292;2023-05-28T07:40:54;101841.84;;;18.90
65316;BMP280;51920;53.952;10.292;2023-05-28T07:43:32;101848.38;;;19.26
65316;BMP280;51920;53.952;10.292;2023-05-28T07:46:04;101841.06;;;18.89
65316;BMP280;51920;53.952;10.292;2023-05-28T07:48:39;101843.09;;;19.39
65316;BMP280;51920;53.952;10.292;2023-05-28T07:51:24;101837.25;;;19.61
65316;BMP280;51920;53.952;10.292;2023-05-28T07:54:09;101833.25;;;19.42
65316;BMP280;51920;53.952;10.292;2023-05-28T07:56:39;101837.22;;;19.64
65316;BMP280;51920;53.952;10.292;2023-05-28T07:59:10;101836.16;;;19.04
65316;BMP280;51920;53.952;10.292;2023-05-28T08:01:41;101840.63;;;19.72
65316;BMP280;51920;53.952;10.292;2023-05-28T08:04:09;101837.66;;;19.83
65316;BMP280;51920;53.952;10.292;2023-05-28T08:06:38;101846.41;;;19.54
65316;BMP280;51920;53.952;10.292;2023-05-28T08:09:08;101847.38;;;19.67
65316;BMP280;51920;53.952;10.292;2023-05-28T08:11:35;101839.94;;;19.88
65316;BMP280;51920;53.952;10.292;2023-05-28T08:14:03;101833.41;;;20.02
65316;BMP280;51920;53.952;10.292;2023-05-28T08:16:31;101844.56;;;19.94
65316;BMP280;51920;53.952;10.292;2023-05-28T08:19:27;101836.72;;;19.69
65316;BMP280;51920;53.952;10.292;2023-05-28T08:21:57;101837.31;;;20.44
65316;BMP280;51920;53.952;10.292;2023-05-28T08:24:24;101834.22;;;20.42
65316;BMP280;51920;53.952;10.292;2023-05-28T08:26:53;101834.78;;;20.13
65316;BMP280;51920;53.952;10.292;2023-05-28T08:29:21;101837.78;;;20.39
65316;BMP280;51920;53.952;10.292;2023-05-28T08:31:56;101843.34;;;20.75
65316;BMP280;51920;53.952;10.292;2023-05-28T08:34:29;101838.38;;;20.50
65316;BMP280;51920;53.952;10.292;2023-05-28T08:36:55;101834.75;;;20.53
65316;BMP280;51920;53.952;10.292;2023-05-28T08:39:29;101834.13;;;21.18
65316;BMP280;51920;53.952;10.292;2023-05-28T08:41:57;101840.19;;;20.57
65316;BMP280;51920;53.952;10.292;2023-05-28T08:44:24;101837.31;;;20.44
65316;BMP280;51920;53.952;10.292;2023-05-28T08:46:53;101835.75;;;20.63
65316;BMP280;51920;53.952;10.292;2023-05-28T08:49:32;101832.41;;;20.52
65316;BMP280;51920;53.952;10.292;2023-05-28T08:52:04;101837.88;;;20.92
65316;BMP280;51920;53.952;10.292;2023-05-28T08:54:33;101840.16;;;21.29
65316;BMP280;51920;53.952;10.292;2023-05-28T08:57:00;101829.28;;;20.90
65316;BMP280;51920;53.952;10.292;2023-05-28T08:59:33;101831.03;;;20.63
65316;BMP280;51920;53.952;10.292;2023-05-28T09:02:02;101838.34;;;21.23
65316;BMP280;51920;53.952;10.292;2023-05-28T09:04:29;101829.91;;;21.30
65316;BMP280;51920;53.952;10.292;2023-05-28T09:06:57;101833.16;;;21.58
65316;BMP280;51920;53.952;10.292;2023-05-28T09:09:32;101833.25;;;21.05
65316;BMP280;51920;53.952;10.292;2023-05-28T09:12:04;101837.97;;;21.04
65316;BMP280;51920;53.952;10.292;2023-05-28T09:14:42;101823.47;;;20.68
65316;BMP280;51920;53.952;10.292;2023-05-28T09:17:09;101828.53;;;21.22
65316;BMP280;51920;53.952;10.292;2023-05-28T09:19:49;101831.53;;;21.11
65316;BMP280;51920;53.952;10.292;2023-05-28T09:22:18;101829.63;;;21.08
65316;BMP280;51920;53.952;10.292;2023-05-28T09:24:54;101839.72;;;20.98
65316;BMP280;51920;53.952;10.292;2023-05-28T09:27:21;101837.78;;;20.39
65316;BMP280;51920;53.952;10.292;2023-05-28T09:29:51;101828.16;;;21.36
65316;BMP280;51920;53.952;10.292;2023-05-28T09:32:19;101829.41;;;22.10
65316;BMP280;51920;53.952;10.292;2023-05-28T09:34:49;101830.91;;;21.52
65316;BMP280;51920;53.952;10.292;2023-05-28T09:37:17;101823.66;;;22.04
65316;BMP280;51920;53.952;10.292;2023-05-28T09:39:44;101825.19;;;22.05
65316;BMP280;51920;53.952;10.292;2023-05-28T09:42:11;101816.41;;;21.65
65316;BMP280;51920;53.952;10.292;2023-05-28T09:44:40;101818.38;;;21.19
65316;BMP280;51920;53.952;10.292;2023-05-28T09:47:18;101814.88;;;21.80
65316;BMP280;51920;53.952;10.292;2023-05-28T09:49:48;101821.13;;;22.10
65316;BMP280;51920;53.952;10.292;2023-05-28T09:52:18;101823.28;;;22.31
65316;BMP280;51920;53.952;10.292;2023-05-28T09:54:51;101821.50;;;22.37
65316;BMP280;51920;53.952;10.292;2023-05-28T09:57:32;101823.03;;;22.25
65316;BMP280;51920;53.952;10.292;2023-05-28T10:00:01;101828.72;;;22.06
65316;BMP280;51920;53.952;10.292;2023-05-28T10:02:48;101826.59;;;21.68
65316;BMP280;51920;53.952;10.292;2023-05-28T10:05:20;101822.66;;;22.40
65316;BMP280;51920;53.952;10.292;2023-05-28T10:07:52;101826.22;;;21.82
65316;BMP280;51920;53.952;10.292;2023-05-28T10:10:20;101831.25;;;21.71
65316;BMP280;51920;53.952;10.292;2023-05-28T10:12:48;101821.06;;;21.97
65316;BMP280;51920;53.952;10.292;2023-05-28T10:15:16;101818.22;;;22.55
65316;BMP280;51920;53.952;10.292;2023-05-28T10:17:43;101811.44;;;22.31
65316;BMP280;51920;53.952;10.292;2023-05-28T10:20:11;101809.84;;;22.84
65316;BMP280;51920;53.952;10.292;2023-05-28T10:22:38;101811.72;;;22.36
65316;BMP280;51920;53.952;10.292;2023-05-28T10:25:07;101805.66;;;22.67
65316;BMP280;51920;53.952;10.292;2023-05-28T10:27:36;101819.03;;;22.14
65316;BMP280;51920;53.952;10.292;2023-05-28T10:30:04;101812.16;;;21.47
65316;BMP280;51920;53.952;10.292;2023-05-28T10:32:39;101814.59;;;22.03
65316;BMP280;51920;53.952;10.292;2023-05-28T10:35:11;101817.72;;;21.76
65316;BMP280;51920;53.952;10.292;2023-05-28T10:37:41;101815.84;;;22.15
65316;BMP280;51920;53.952;10.292;2023-05-28T10:40:08;101815.19;;;21.82
65316;BMP280;51920;53.952;10.292;2023-05-28T10:42:39;101816.41;;;21.65
65316;BMP280;51920;53.952;10.292;2023-05-28T10:45:09;101818.03;;;21.78
65316;BMP280;51920;53.952;10.292;2023-05-28T10:47:38;101818.13;;;21.75
65316;BMP280;51920;53.952;10.292;2023-05-28T10:52:39;101820.50;;;21.89
65316;BMP280;51920;53.952;10.292;2023-05-28T10:55:08;101818.81;;;22.21
65316;BMP280;51920;53.952;10.292;2023-05-28T10:57:43;101825.00;;;22.25
65316;BMP280;51920;53.952;10.292;2023-05-28T11:00:23;101823.84;;;21.68
65316;BMP280;51920;53.952;10.292;2023-05-28T11:02:51;101821.09;;;21.68
65316;BMP280;51920;53.952;10.292;2023-05-28T11:05:25;101811.81;;;21.29
65316;BMP280;51920;53.952;10.292;2023-05-28T11:07:53;101810.84;;;21.68
65316;BMP280;51920;53.952;10.292;2023-05-28T11:10:21;101807.72;;;21.95
65316;BMP280;51920;53.952;10.292;2023-05-28T11:12:50;101804.72;;;21.28
65316;BMP280;51920;53.952;10.292;2023-05-28T11:15:16;101803.34;;;20.87
65316;BMP280;51920;53.952;10.292;2023-05-28T11:17:45;101803.34;;;21.03
65316;BMP280;51920;53.952;10.292;2023-05-28T11:20:23;101802.13;;;20.72
65316;BMP280;51920;53.952;10.292;2023-05-28T11:22:56;101804.91;;;21.21
65316;BMP280;51920;53.952;10.292;2023-05-28T11:25:23;101798.38;;;21.31
65316;BMP280;51920;53.952;10.292;2023-05-28T11:27:53;101807.38;;;21.93
65316;BMP280;51920;53.952;10.292;2023-05-28T11:30:20;101792.50;;;21.91
65316;BMP280;51920;53.952;10.292;2023-05-28T11:32:48;101804.00;;;21.27
65316;BMP280;51920;53.952;10.292;2023-05-28T11:35:16;101801.53;;;21.46
65316;BMP280;51920;53.952;10.292;2023-05-28T11:37:44;101806.13;;;21.20
65316;BMP280;51920;53.952;10.292;2023-05-28T11:40:12;101804.41;;;21.09
65316;BMP280;51920;53.952;10.292;2023-05-28T11:42:41;101800.03;;;21.28
65316;BMP280;51920;53.952;10.292;2023-05-28T11:45:09;101796.63;;;21.37
65316;BMP280;51920;53.952;10.292;2023-05-28T11:47:38;101798.91;;;21.26
65316;BMP280;51920;53.952;10.292;2023-05-28T11:50:08;101801.38;;;21.20
65316;BMP280;51920;53.952;10.292;2023-05-28T11:52:35;101795.97;;;21.00
65316;BMP280;51920;53.952;10.292;2023-05-28T11:55:02;101789.94;;;21.22
65316;BMP280;51920;53.952;10.292;2023-05-28T11:57:32;101782.34;;;21.42
65316;BMP280;51920;53.952;10.292;2023-05-28T12:00:07;101790.34;;;21.37
65316;BMP280;51920;53.952;10.292;2023-05-28T12:02:48;101796.47;;;21.28
65316;BMP280;51920;53.952;10.292;2023-05-28T12:05:16;101798.72;;;21.33
65316;BMP280;51920;53.952;10.292;2023-05-28T12:07:51;101784.63;;;20.98
65316;BMP280;51920;53.952;10.292;2023-05-28T12:10:19;101791.94;;;21.21
65316;BMP280;51920;53.952;10.292;2023-05-28T12:15:15;101786.03;;;20.86
65316;BMP280;51920;53.952;10.292;2023-05-28T12:17:43;101788.75;;;21.06
65316;BMP280;51920;53.952;10.292;2023-05-28T12:22:40;101777.56;;;20.61
65316;BMP280;51920;53.952;10.292;2023-05-28T12:25:07;101772.03;;;20.97
65316;BMP280;51920;53.952;10.292;2023-05-28T12:27:35;101786.13;;;20.83
65316;BMP280;51920;53.952;10.292;2023-05-28T12:30:05;101772.94;;;20.58
65316;BMP280;51920;53.952;10.292;2023-05-28T12:32:46;101781.66;;;20.73
65316;BMP280;51920;53.952;10.292;2023-05-28T12:35:13;101767.84;;;20.56
65316;BMP280;51920;53.952;10.292;2023-05-28T12:37:40;101776.63;;;20.68
65316;BMP280;51920;53.952;10.292;2023-05-28T12:40:07;101777.00;;;20.86
65316;BMP280;51920;53.952;10.292;2023-05-28T12:42:34;101778.22;;;20.85
65316;BMP280;51920;53.952;10.292;2023-05-28T12:45:00;101777.03;;;21.02
65316;BMP280;51920;53.952;10.292;2023-05-28T12:47:27;101778.03;;;20.76
65316;BMP280;51920;53.952;10.292;2023-05-28T12:49:54;101778.22;;;20.69
65316;BMP280;51920;53.952;10.292;2023-05-28T12:52:21;101783.97;;;20.74
65316;BMP280;51920;53.952;10.292;2023-05-28T12:54:47;101787.38;;;20.62
65316;BMP280;51920;53.952;10.292;2023-05-28T12:57:14;101790.03;;;20.49
65316;BMP280;51920;53.952;10.292;2023-05-28T12:59:41;101784.91;;;20.68
65316;BMP280;51920;53.952;10.292;2023-05-28T13:02:08;101780.59;;;20.67
65316;BMP280;51920;53.952;10.292;2023-05-28T13:04:35;101776.63;;;20.51
65316;BMP280;51920;53.952;10.292;2023-05-28T13:07:01;101775.06;;;20.30
65316;BMP280;51920;53.952;10.292;2023-05-28T13:09:28;101778.59;;;20.31
65316;BMP280;51920;53.952;10.292;2023-05-28T13:11:54;101789.25;;;20.29
65316;BMP280;51920;53.952;10.292;2023-05-28T13:14:22;101771.56;;;20.30
65316;BMP280;51920;53.952;10.292;2023-05-28T13:16:48;101772.50;;;20.39
65316;BMP280;51920;53.952;10.292;2023-05-28T13:19:15;101768.66;;;20.37
65316;BMP280;51920;53.952;10.292;2023-05-28T13:21:42;101761.63;;;20.52
65316;BMP280;51920;53.952;10.292;2023-05-28T13:24:08;101758.66;;;20.63
65316;BMP280;51920;53.952;10.292;2023-05-28T13:26:35;101760.22;;;20.64
65316;BMP280;51920;53.952;10.292;2023-05-28T13:29:03;101774.72;;;20.64
65316;BMP280;51920;53.952;10.292;2023-05-28T13:31:37;101773.38;;;20.73
65316;BMP280;51920;53.952;10.292;2023-05-28T13:34:04;101753.47;;;20.29
65316;BMP280;51920;53.952;10.292;2023-05-28T13:36:31;101766.94;;;20.43
65316;BMP280;51920;53.952;10.292;2023-05-28T13:38:57;101754.63;;;20.11
65316;BMP280;51920;53.952;10.292;2023-05-28T13:41:25;101758.31;;;20.25
65316;BMP280;51920;53.952;10.292;2023-05-28T13:43:54;101749.25;;;20.04
65316;BMP280;51920;53.952;10.292;2023-05-28T13:46:22;101764.00;;;20.14
65316;BMP280;51920;53.952;10.292;2023-05-28T13:48:50;101754.53;;;20.15
65316;BMP280;51920;53.952;10.292;2023-05-28T13:51:17;101752.88;;;20.01
65316;BMP280;51920;53.952;10.292;2023-05-28T13:53:44;101755.78;;;19.94
65316;BMP280;51920;53.952;10.292;2023-05-28T13:56:13;101753.66;;;20.02
65316;BMP280;51920;53.952;10.292;2023-05-28T13:58:40;101742.28;;;20.20
65316;BMP280;51920;53.952;10.292;2023-05-28T14:01:06;101745.25;;;20.09
65316;BMP280;51920;53.952;10.292;2023-05-28T14:03:33;101738.53;;;20.10
65316;BMP280;51920;53.952;10.292;2023-05-28T14:06:00;101727.75;;;19.99
65316;BMP280;51920;53.952;10.292;2023-05-28T14:08:27;101731.66;;;19.82